createdAt,value
2019-05-16T00:02:28.464Z,12.40
2019-05-16T00:04:59.173Z,12.40
2019-05-16T00:07:28.855Z,12.50
2019-05-16T00:09:59.047Z,12.40
2019-05-16T00:12:29.268Z,12.40
2019-05-16T00:14:58.833Z,12.40
2019-05-16T00:17:28.598Z,12.40
2019-05-16T00:19:58.918Z,12.40
2019-05-16T00:22:28.852Z,12.40
2019-05-16T00:24:58.571Z,12.40
2019-05-16T00:27:28.228Z,12.40
2019-05-16T00:29:58.163Z,12.50
2019-05-16T00:32:28.297Z,12.40
2019-05-16T00:34:58.315Z,12.50
2019-05-16T00:37:28.723Z,12.50
2019-05-16T00:39:58.826Z,12.40
2019-05-16T00:42:28.745Z,12.40
2019-05-16T00:44:58.754Z,12.40
2019-05-16T00:47:28.459Z,12.40
2019-05-16T00:49:58.330Z,12.40
2019-05-16T00:52:28.820Z,12.50
2019-05-16T00:54:58.388Z,12.50
2019-05-16T00:57:28.627Z,12.40
2019-05-16T00:59:59.160Z,12.40
2019-05-16T01:02:29.193Z,12.40
2019-05-16T01:04:59.531Z,12.40
2019-05-16T01:07:29.032Z,12.50
2019-05-16T01:09:58.460Z,12.50
2019-05-16T01:12:28.355Z,12.50
2019-05-16T01:14:58.494Z,12.50
2019-05-16T01:17:28.456Z,12.50
2019-05-16T01:19:58.062Z,12.50
2019-05-16T01:22:29.003Z,12.40
2019-05-16T01:24:58.678Z,12.50
2019-05-16T01:27:28.178Z,12.40
2019-05-16T01:29:58.386Z,12.40
2019-05-16T01:32:29.154Z,12.40
2019-05-16T01:34:59.109Z,12.40
2019-05-16T01:37:29.017Z,12.40
2019-05-16T01:39:58.788Z,12.30
2019-05-16T01:42:28.361Z,12.20
2019-05-16T01:44:58.258Z,12.20
2019-05-16T01:47:28.789Z,12.20
2019-05-16T01:49:58.385Z,12.10
2019-05-16T01:52:29.056Z,12.10
2019-05-16T01:54:58.817Z,12.10
2019-05-16T01:57:28.362Z,12.10
2019-05-16T01:59:58.960Z,12.10
2019-05-16T02:02:29.039Z,12.00
2019-05-16T02:04:59.022Z,12.00
2019-05-16T02:07:28.782Z,12.00
2019-05-16T02:09:58.395Z,12.00
2019-05-16T02:12:27.961Z,12.00
2019-05-16T02:14:58.710Z,12.00
2019-05-16T02:17:28.916Z,12.00
2019-05-16T02:19:58.567Z,12.00
2019-05-16T02:22:28.579Z,12.10
2019-05-16T02:24:58.611Z,12.10
2019-05-16T02:27:28.696Z,12.10
2019-05-16T02:30:00.018Z,12.10
2019-05-16T02:32:31.369Z,12.10
2019-05-16T02:35:01.384Z,12.10
2019-05-16T02:37:34.803Z,12.10
2019-05-16T02:40:02.210Z,12.00
2019-05-16T02:42:31.714Z,12.00
2019-05-16T02:45:02.496Z,12.00
2019-05-16T02:47:35.058Z,12.10
2019-05-16T02:50:03.566Z,12.10
2019-05-16T02:52:33.074Z,12.10
2019-05-16T02:55:02.607Z,12.20
2019-05-16T02:57:32.154Z,12.10
2019-05-16T03:00:02.386Z,12.10
2019-05-16T03:02:32.039Z,12.20
2019-05-16T03:05:01.667Z,12.20
2019-05-16T03:07:41.195Z,12.10
2019-05-16T03:10:03.378Z,12.10
2019-05-16T03:12:33.713Z,12.20
2019-05-16T03:15:03.497Z,12.10
2019-05-16T03:17:35.892Z,12.10
2019-05-16T03:20:06.161Z,12.00
2019-05-16T03:22:36.916Z,12.00
2019-05-16T03:25:06.584Z,12.10
2019-05-16T03:27:37.025Z,12.00
2019-05-16T03:30:06.598Z,12.10
2019-05-16T03:32:36.116Z,12.10
2019-05-16T03:35:06.627Z,12.00
2019-05-16T03:37:49.942Z,12.10
2019-05-16T03:40:07.570Z,12.10
2019-05-16T03:42:37.104Z,12.10
2019-05-16T03:45:10.198Z,12.00
2019-05-16T03:47:42.276Z,12.00
2019-05-16T03:50:11.093Z,12.00
2019-05-16T03:52:43.578Z,12.00
2019-05-16T03:55:12.414Z,12.00
2019-05-16T03:57:42.086Z,12.00
2019-05-16T04:00:12.359Z,11.90
2019-05-16T04:02:45.454Z,11.90
2019-05-16T04:05:13.107Z,11.90
2019-05-16T04:07:51.395Z,11.90
2019-05-16T04:10:21.815Z,12.00
2019-05-16T04:12:51.431Z,11.90
2019-05-16T04:15:21.587Z,12.00
2019-05-16T04:17:52.563Z,11.90
2019-05-16T04:20:21.934Z,12.00
2019-05-16T04:22:52.351Z,11.90
2019-05-16T04:25:21.899Z,11.90
2019-05-16T04:27:51.312Z,11.90
2019-05-16T04:30:21.992Z,11.90
2019-05-16T04:32:52.173Z,11.90
2019-05-16T04:35:21.779Z,11.90
2019-05-16T04:37:54.211Z,11.90
2019-05-16T04:40:25.125Z,11.90
2019-05-16T04:42:55.032Z,12.00
2019-05-16T04:45:25.364Z,12.00
2019-05-16T04:47:54.887Z,12.00
2019-05-16T04:50:24.706Z,11.90
2019-05-16T04:52:55.953Z,11.90
2019-05-16T04:55:25.463Z,11.90
2019-05-16T04:58:01.536Z,12.00
2019-05-16T05:00:37.186Z,12.00
2019-05-16T05:03:21.125Z,12.00
2019-05-16T05:06:05.757Z,12.00
2019-05-16T05:09:03.668Z,12.00
2019-05-16T05:12:03.575Z,12.00
2019-05-16T05:14:50.814Z,12.10
2019-05-16T05:17:20.869Z,12.10
2019-05-16T05:19:50.710Z,12.10
2019-05-16T05:22:20.739Z,12.20
2019-05-16T05:25:00.130Z,12.20
2019-05-16T05:27:25.862Z,12.20
2019-05-16T05:29:55.518Z,12.20
2019-05-16T05:32:25.113Z,12.10
2019-05-16T05:34:54.687Z,12.10
2019-05-16T05:37:24.158Z,12.20
2019-05-16T05:39:53.518Z,12.10
2019-05-16T05:42:23.288Z,12.10
2019-05-16T05:44:53.578Z,12.10
2019-05-16T05:47:23.123Z,12.10
2019-05-16T05:49:53.982Z,12.20
2019-05-16T05:52:23.379Z,12.10
2019-05-16T05:54:52.997Z,12.20
2019-05-16T05:57:22.599Z,12.20
2019-05-16T05:59:52.783Z,12.10
2019-05-16T06:02:22.301Z,12.10
2019-05-16T06:04:51.722Z,12.10
2019-05-16T06:07:21.042Z,12.20
2019-05-16T06:09:56.155Z,12.30
2019-05-16T06:12:21.782Z,12.40
2019-05-16T06:14:51.077Z,12.50
2019-05-16T06:17:20.422Z,12.50
2019-05-16T06:19:49.951Z,12.60
2019-05-16T06:22:20.542Z,12.60
2019-05-16T06:24:52.712Z,12.60
2019-05-16T06:27:23.631Z,12.60
2019-05-16T06:29:53.256Z,12.60
2019-05-16T06:32:23.110Z,12.70
2019-05-16T06:34:53.127Z,12.70
2019-05-16T06:37:22.492Z,12.70
2019-05-16T06:39:51.841Z,12.70
2019-05-16T06:42:21.530Z,12.80
2019-05-16T06:44:51.545Z,12.70
2019-05-16T06:47:23.097Z,12.70
2019-05-16T06:49:52.634Z,12.70
2019-05-16T06:52:21.974Z,12.70
2019-05-16T06:54:53.825Z,12.70
2019-05-16T06:57:22.463Z,12.70
2019-05-16T06:59:51.991Z,12.70
2019-05-16T07:02:30.212Z,12.70
2019-05-16T07:04:52.596Z,12.70
2019-05-16T07:07:22.058Z,12.90
2019-05-16T07:10:00.048Z,12.90
2019-05-16T07:12:26.449Z,12.90
2019-05-16T07:14:57.153Z,12.90
2019-05-16T07:17:26.717Z,12.90
2019-05-16T07:19:56.113Z,13.00
2019-05-16T07:22:26.064Z,13.00
2019-05-16T07:24:56.846Z,13.00
2019-05-16T07:27:30.681Z,13.00
2019-05-16T07:30:02.601Z,13.10
2019-05-16T07:32:32.390Z,13.10
2019-05-16T07:35:02.581Z,13.20
2019-05-16T07:37:32.259Z,13.20
2019-05-16T07:40:16.271Z,13.30
2019-05-16T07:42:40.305Z,13.30
2019-05-16T07:46:20.870Z,13.40
2019-05-16T07:49:30.533Z,13.50
2019-05-16T07:52:00.865Z,13.70
2019-05-16T07:54:34.574Z,14.00
2019-05-16T07:57:16.073Z,14.10
2019-05-16T07:59:36.833Z,14.10
2019-05-16T08:02:06.632Z,14.10
2019-05-16T08:04:36.171Z,14.00
2019-05-16T08:07:05.948Z,14.00
2019-05-16T08:09:35.342Z,14.00
2019-05-16T08:12:05.983Z,14.10
2019-05-16T08:14:35.519Z,14.10
2019-05-16T08:17:04.966Z,14.10
2019-05-16T08:19:34.524Z,14.20
2019-05-16T08:22:04.067Z,14.10
2019-05-16T08:24:36.155Z,14.10
2019-05-16T08:27:04.984Z,14.20
2019-05-16T08:29:34.513Z,14.20
2019-05-16T08:32:04.029Z,14.20
2019-05-16T08:34:33.497Z,14.30
2019-05-16T08:37:03.189Z,14.40
2019-05-16T08:39:32.737Z,14.50
2019-05-16T08:42:08.153Z,14.50
2019-05-16T08:44:33.750Z,14.50
2019-05-16T08:47:06.033Z,14.50
2019-05-16T08:49:35.077Z,14.50
2019-05-16T08:52:11.439Z,14.60
2019-05-16T08:54:43.766Z,14.60
2019-05-16T08:57:26.108Z,14.60
2019-05-16T08:59:45.712Z,14.60
2019-05-16T09:02:17.853Z,14.60
2019-05-16T09:04:53.060Z,14.70
2019-05-16T09:07:22.389Z,14.70
2019-05-16T09:09:52.002Z,14.80
2019-05-16T09:12:21.465Z,14.80
2019-05-16T09:14:51.559Z,14.90
2019-05-16T09:17:21.252Z,15.00
2019-05-16T09:19:50.933Z,15.10
2019-05-16T09:22:23.238Z,15.10
2019-05-16T09:24:52.747Z,15.00
2019-05-16T09:27:27.296Z,15.00
2019-05-16T09:30:33.135Z,15.10
2019-05-16T09:33:02.768Z,15.10
2019-05-16T09:35:32.301Z,15.20
2019-05-16T09:38:01.832Z,15.30
2019-05-16T09:40:31.327Z,15.30
2019-05-16T09:43:00.847Z,15.40
2019-05-16T09:45:30.416Z,15.50
2019-05-16T09:47:59.945Z,15.60
2019-05-16T09:50:29.749Z,15.70
2019-05-16T09:52:59.502Z,15.90
2019-05-16T09:55:29.050Z,16.10
2019-05-16T09:57:58.662Z,16.30
2019-05-16T10:00:29.192Z,16.30
2019-05-16T10:02:58.719Z,16.40
2019-05-16T10:05:28.445Z,16.40
2019-05-16T10:07:58.099Z,16.40
2019-05-16T10:10:27.671Z,16.60
2019-05-16T10:12:57.231Z,16.70
2019-05-16T10:15:27.101Z,16.90
2019-05-16T10:17:57.538Z,17.00
2019-05-16T10:20:27.494Z,17.10
2019-05-16T10:22:57.941Z,17.00
2019-05-16T10:25:28.010Z,17.00
2019-05-16T10:27:57.526Z,17.10
2019-05-16T10:30:28.259Z,17.20
2019-05-16T10:33:00.760Z,17.20
2019-05-16T10:35:30.258Z,17.30
2019-05-16T10:37:59.840Z,17.30
2019-05-16T10:40:29.298Z,17.40
2019-05-16T10:42:58.848Z,17.40
2019-05-16T10:45:28.549Z,17.30
2019-05-16T10:47:58.087Z,17.30
2019-05-16T10:50:27.797Z,17.30
2019-05-16T10:53:22.355Z,17.30
2019-05-16T10:55:28.973Z,17.20
2019-05-16T10:57:58.623Z,17.20
2019-05-16T11:00:57.633Z,17.30
2019-05-16T11:02:59.677Z,17.40
2019-05-16T11:05:33.649Z,17.40
2019-05-16T11:08:00.683Z,17.50
2019-05-16T11:10:30.396Z,17.60
2019-05-16T11:13:00.020Z,17.60
2019-05-16T11:15:29.572Z,17.60
2019-05-16T11:18:00.053Z,17.60
2019-05-16T11:20:29.739Z,17.60
2019-05-16T11:22:59.364Z,17.60
2019-05-16T11:25:32.491Z,17.70
2019-05-16T11:28:00.083Z,17.90
2019-05-16T11:30:29.664Z,18.00
2019-05-16T11:32:59.179Z,18.10
2019-05-16T11:35:28.705Z,18.30
2019-05-16T11:37:58.240Z,18.40
2019-05-16T11:40:30.242Z,18.40
2019-05-16T11:43:10.583Z,18.50
2019-05-16T11:45:30.143Z,18.40
2019-05-16T11:47:59.748Z,18.40
2019-05-16T11:50:29.292Z,18.30
2019-05-16T11:52:59.390Z,18.30
2019-05-16T11:55:34.143Z,18.40
2019-05-16T11:58:00.621Z,18.50
2019-05-16T12:00:30.778Z,18.60
2019-05-16T12:03:00.501Z,18.80
2019-05-16T12:05:30.035Z,19.00
2019-05-16T12:07:59.615Z,19.20
2019-05-16T12:10:29.297Z,19.20
2019-05-16T12:12:58.749Z,19.10
2019-05-16T12:15:28.322Z,19.20
2019-05-16T12:18:02.095Z,19.30
2019-05-16T12:20:29.084Z,19.40
2019-05-16T12:22:58.654Z,19.30
2019-05-16T12:25:28.234Z,19.30
2019-05-16T12:27:57.697Z,19.30
2019-05-16T12:30:27.237Z,19.50
2019-05-16T12:32:58.076Z,19.60
2019-05-16T12:35:27.873Z,19.70
2019-05-16T12:37:57.794Z,19.70
2019-05-16T12:40:27.485Z,19.60
2019-05-16T12:42:57.350Z,19.60
2019-05-16T12:45:27.573Z,19.60
2019-05-16T12:47:57.495Z,19.70
2019-05-16T12:50:28.540Z,19.80
2019-05-16T12:52:58.635Z,19.80
2019-05-16T12:55:28.290Z,19.80
2019-05-16T12:58:12.331Z,19.80
2019-05-16T13:00:29.126Z,19.90
2019-05-16T13:02:58.668Z,20.10
2019-05-16T13:05:28.192Z,20.30
2019-05-16T13:07:57.758Z,20.40
2019-05-16T13:10:27.254Z,20.50
2019-05-16T13:12:57.966Z,20.60
2019-05-16T13:15:27.632Z,20.60
2019-05-16T13:17:57.274Z,20.90
2019-05-16T13:20:27.075Z,21.10
2019-05-16T13:22:56.917Z,21.30
2019-05-16T13:25:27.328Z,21.40
2019-05-16T13:27:57.814Z,21.30
2019-05-16T13:30:27.457Z,21.20
2019-05-16T13:32:57.031Z,21.00
2019-05-16T13:35:27.132Z,20.70
2019-05-16T13:37:57.998Z,20.40
2019-05-16T13:40:27.785Z,20.10
2019-05-16T13:42:57.484Z,19.90
2019-05-16T13:45:27.442Z,19.70
2019-05-16T13:47:57.400Z,19.60
2019-05-16T13:50:27.390Z,19.60
2019-05-16T13:52:58.341Z,19.50
2019-05-16T13:55:28.185Z,19.50
2019-05-16T13:57:57.807Z,19.50
2019-05-16T14:00:28.048Z,19.50
2019-05-16T14:02:57.741Z,19.50
2019-05-16T14:05:27.332Z,19.40
2019-05-16T14:07:57.344Z,19.40
2019-05-16T14:10:29.691Z,19.20
2019-05-16T14:12:58.215Z,19.00
2019-05-16T14:15:27.847Z,18.90
2019-05-16T14:17:57.839Z,18.70
2019-05-16T14:20:27.751Z,18.50
2019-05-16T14:22:57.749Z,18.40
2019-05-16T14:25:29.104Z,18.40
2019-05-16T14:27:58.650Z,18.30
2019-05-16T14:30:28.672Z,18.30
2019-05-16T14:33:00.994Z,18.30
2019-05-16T14:35:29.606Z,18.20
2019-05-16T14:38:00.866Z,18.10
2019-05-16T14:40:30.648Z,18.10
2019-05-16T14:43:00.665Z,17.90
2019-05-16T14:45:30.317Z,17.90
2019-05-16T14:48:00.380Z,17.80
2019-05-16T14:50:38.222Z,17.70
2019-05-16T14:53:08.618Z,17.70
2019-05-16T14:55:40.463Z,17.60
2019-05-16T14:58:10.953Z,17.50
2019-05-16T15:00:41.174Z,17.50
2019-05-16T15:03:11.348Z,17.40
2019-05-16T15:05:42.810Z,17.30
2019-05-16T15:08:12.343Z,17.10
2019-05-16T15:10:43.943Z,17.00
2019-05-16T15:13:13.381Z,17.00
2019-05-16T15:15:50.335Z,16.90
2019-05-16T15:18:19.841Z,17.00
2019-05-16T15:20:50.462Z,16.90
2019-05-16T15:23:21.219Z,16.90
2019-05-16T15:25:52.008Z,16.90
2019-05-16T15:28:30.261Z,16.90
2019-05-16T15:30:58.815Z,16.90
2019-05-16T15:33:28.339Z,16.90
2019-05-16T15:35:58.025Z,16.90
2019-05-16T15:38:27.532Z,16.80
2019-05-16T15:41:00.567Z,16.80
2019-05-16T15:43:29.517Z,16.70
2019-05-16T15:46:02.999Z,16.70
2019-05-16T15:48:32.535Z,16.80
2019-05-16T15:51:02.020Z,16.70
2019-05-16T15:53:31.707Z,16.60
2019-05-16T15:56:01.724Z,16.60
2019-05-16T15:58:31.555Z,16.50
2019-05-16T16:01:12.413Z,16.50
2019-05-16T16:04:14.096Z,16.50
2019-05-16T16:06:43.997Z,16.40
2019-05-16T16:09:13.879Z,16.40
2019-05-16T16:11:43.708Z,16.40
2019-05-16T16:14:13.595Z,16.20
2019-05-16T16:16:43.257Z,16.20
2019-05-16T16:19:13.019Z,16.10
2019-05-16T16:21:47.324Z,16.10
2019-05-16T16:24:19.185Z,16.10
2019-05-16T16:26:47.945Z,16.20
2019-05-16T16:29:17.456Z,16.20
2019-05-16T16:31:47.641Z,16.20
2019-05-16T16:34:17.675Z,16.10
2019-05-16T16:36:47.655Z,16.10
2019-05-16T16:39:26.821Z,16.00
2019-05-16T16:41:52.924Z,16.00
2019-05-16T16:44:23.546Z,16.00
2019-05-16T16:46:53.294Z,16.00
2019-05-16T16:49:23.464Z,15.90
2019-05-16T16:51:57.073Z,15.80
2019-05-16T16:54:27.417Z,15.70
2019-05-16T16:57:01.892Z,15.60
2019-05-16T16:59:37.130Z,15.60
2019-05-16T17:02:11.980Z,15.60
2019-05-16T17:04:41.800Z,15.60
2019-05-16T17:07:16.739Z,15.50
2019-05-16T17:09:47.099Z,15.50
2019-05-16T17:12:18.658Z,15.50
2019-05-16T17:14:48.165Z,15.50
2019-05-16T17:17:17.722Z,15.40
2019-05-16T17:19:47.499Z,15.30
2019-05-16T17:22:20.653Z,15.30
2019-05-16T17:24:48.377Z,15.20
2019-05-16T17:27:19.769Z,15.20
2019-05-16T17:29:49.126Z,15.00
2019-05-16T17:32:18.447Z,15.10
2019-05-16T17:34:47.982Z,15.10
2019-05-16T17:37:17.436Z,15.00
2019-05-16T17:39:47.471Z,15.10
2019-05-16T17:42:16.957Z,15.00
2019-05-16T17:44:47.257Z,14.70
2019-05-16T17:47:17.390Z,14.50
2019-05-16T17:49:49.721Z,14.40
2019-05-16T17:52:19.154Z,14.40
2019-05-16T17:54:48.641Z,14.30
2019-05-16T17:57:18.043Z,14.20
2019-05-16T17:59:48.094Z,14.10
2019-05-16T18:02:17.552Z,14.00
2019-05-16T18:04:47.242Z,13.90
2019-05-16T18:07:16.942Z,13.80
2019-05-16T18:09:48.492Z,13.70
2019-05-16T18:12:18.067Z,13.60
2019-05-16T18:14:50.382Z,13.60
2019-05-16T18:17:18.879Z,13.50
2019-05-16T18:19:48.798Z,13.40
2019-05-16T18:22:18.316Z,13.40
2019-05-16T18:24:47.806Z,13.40
2019-05-16T18:27:17.352Z,13.30
2019-05-16T18:29:47.830Z,13.20
2019-05-16T18:32:17.334Z,13.20
2019-05-16T18:34:46.817Z,13.20
2019-05-16T18:37:17.298Z,13.30
2019-05-16T18:39:47.518Z,13.20
2019-05-16T18:42:17.003Z,13.30
2019-05-16T18:44:47.225Z,13.20
2019-05-16T18:47:16.765Z,13.20
2019-05-16T18:49:47.281Z,13.20
2019-05-16T18:52:17.365Z,13.00
2019-05-16T18:54:46.892Z,13.00
2019-05-16T18:57:17.567Z,13.00
2019-05-16T18:59:47.152Z,12.90
2019-05-16T19:02:17.897Z,12.90
2019-05-16T19:04:50.091Z,13.00
2019-05-16T19:07:18.621Z,13.00
2019-05-16T19:09:48.065Z,13.00
2019-05-16T19:12:17.609Z,12.90
2019-05-16T19:14:47.378Z,12.90
2019-05-16T19:17:23.872Z,12.90
2019-05-16T19:19:48.136Z,12.90
2019-05-16T19:22:17.701Z,12.90
2019-05-16T19:24:47.490Z,12.90
2019-05-16T19:27:17.388Z,12.90
2019-05-16T19:29:47.003Z,13.00
2019-05-16T19:32:17.480Z,12.90
2019-05-16T19:34:49.214Z,12.90
2019-05-16T19:37:18.378Z,12.80
2019-05-16T19:39:48.027Z,12.90
2019-05-16T19:42:17.635Z,12.80
2019-05-16T19:44:47.092Z,12.80
2019-05-16T19:47:16.482Z,12.70
2019-05-16T19:49:46.456Z,12.70
2019-05-16T19:52:16.413Z,12.80
2019-05-16T19:54:47.071Z,12.60
2019-05-16T19:57:17.789Z,12.60
2019-05-16T20:00:46.405Z,12.50
2019-05-16T20:03:16.514Z,12.50
2019-05-16T20:05:47.623Z,12.50
2019-05-16T20:08:17.620Z,12.40
2019-05-16T20:10:47.703Z,12.40
2019-05-16T20:13:17.307Z,12.30
2019-05-16T20:15:47.190Z,12.30
2019-05-16T20:18:18.512Z,12.30
2019-05-16T20:20:48.131Z,12.30
2019-05-16T20:23:18.643Z,12.30
2019-05-16T20:25:48.385Z,12.40
2019-05-16T20:28:18.559Z,12.30
2019-05-16T20:30:48.185Z,12.20
2019-05-16T20:33:18.185Z,12.30
2019-05-16T20:35:47.875Z,12.20
2019-05-16T20:38:17.532Z,12.30
2019-05-16T20:40:47.060Z,12.40
2019-05-16T20:43:17.053Z,12.30
2019-05-16T20:45:47.615Z,12.20
2019-05-16T20:48:18.644Z,12.10
2019-05-16T20:50:49.167Z,12.10
2019-05-16T20:53:18.827Z,12.10
2019-05-16T20:55:49.659Z,12.10
2019-05-16T20:58:19.314Z,12.10
2019-05-16T21:00:49.730Z,12.10
2019-05-16T21:03:18.763Z,12.10
2019-05-16T21:05:48.334Z,12.00
2019-05-16T21:08:17.863Z,12.00
2019-05-16T21:10:47.429Z,12.00
2019-05-16T21:13:17.338Z,12.00
2019-05-16T21:15:47.691Z,11.90
2019-05-16T21:18:17.292Z,12.00
2019-05-16T21:20:47.139Z,11.90
2019-05-16T21:23:19.421Z,12.00
2019-05-16T21:25:47.900Z,12.00
2019-05-16T21:28:19.856Z,12.00
2019-05-16T21:30:48.528Z,11.90
2019-05-16T21:33:18.706Z,11.90
2019-05-16T21:35:48.292Z,12.00
2019-05-16T21:38:18.104Z,11.90
2019-05-16T21:40:48.492Z,11.90
2019-05-16T21:43:18.774Z,11.90
2019-05-16T21:45:48.945Z,11.80
2019-05-16T21:48:19.462Z,11.80
2019-05-16T21:50:49.235Z,11.80
2019-05-16T21:53:18.704Z,11.80
2019-05-16T21:55:48.184Z,11.80
2019-05-16T21:58:18.509Z,11.90
2019-05-16T22:00:51.208Z,11.90
2019-05-16T22:03:20.865Z,11.90
2019-05-16T22:05:50.379Z,11.80
2019-05-16T22:08:19.874Z,11.80
2019-05-16T22:10:49.413Z,11.80
2019-05-16T22:13:18.843Z,11.80
2019-05-16T22:15:48.269Z,11.80
2019-05-16T22:18:17.854Z,11.70
2019-05-16T22:20:49.423Z,11.80
2019-05-16T22:23:18.568Z,11.80
2019-05-16T22:25:49.288Z,11.80
2019-05-16T22:28:18.918Z,11.80
2019-05-16T22:30:48.836Z,11.70
2019-05-16T22:33:18.300Z,11.60
2019-05-16T22:35:49.498Z,11.60
2019-05-16T22:38:19.162Z,11.50
2019-05-16T22:40:48.646Z,11.50
2019-05-16T22:43:18.240Z,11.40
2019-05-16T22:45:47.718Z,11.30
2019-05-16T22:48:17.472Z,11.30
2019-05-16T22:50:47.011Z,11.30
2019-05-16T22:53:17.196Z,11.30
2019-05-16T22:55:47.828Z,11.40
2019-05-16T22:58:17.374Z,11.30
2019-05-16T23:00:47.154Z,11.30
2019-05-16T23:03:17.469Z,11.20
2019-05-16T23:05:47.432Z,11.20
2019-05-16T23:08:18.259Z,11.20
2019-05-16T23:10:47.876Z,11.20
2019-05-16T23:13:17.421Z,11.20
2019-05-16T23:15:46.963Z,11.30
2019-05-16T23:18:17.214Z,11.30
2019-05-16T23:20:47.380Z,11.30
2019-05-16T23:23:17.520Z,11.30
2019-05-16T23:25:47.342Z,11.40
2019-05-16T23:28:17.299Z,11.40
2019-05-16T23:30:47.078Z,11.40
2019-05-16T23:33:17.104Z,11.40
2019-05-16T23:35:46.849Z,11.50
2019-05-16T23:38:19.733Z,11.50
2019-05-16T23:40:47.627Z,11.30
2019-05-16T23:43:17.152Z,11.30
2019-05-16T23:45:46.940Z,11.20
2019-05-16T23:48:16.609Z,11.20
2019-05-16T23:50:47.447Z,11.30
2019-05-16T23:53:17.075Z,11.30
2019-05-16T23:55:47.131Z,11.30
2019-05-16T23:58:16.758Z,11.20
